Latest Weather Observations for Port Hedland

IDW60801

Issued at 10:03 pm WST Friday 4 September 2015 (issued every 30 minutes, with the page automatically refreshed every 10 minutes)

About weather observations | Map of weather stations | Latest weather observations for WA | Other Formats
Station Details ID: 004032 Name: PORT HEDLAND AIRPORT Lat: -20.37 Lon: 118.63 Height: 6.4 m
Data from the previous 72 hours. | See also: Recent months at Port Hedland
Date/Time
WST
Temp
°C
App
Temp
°C
Dew
Point
Rel
Hum
%
Delta-T
°C
Wind Press
QNH
hPa
Press
MSL
hPa
Rain
since 9 am
mm
Dir
 
Spd
km/h
Gust
km/h
Spd
kts
Gust
kts
04/10:00pm 17.2 16.5 14.4 83 1.6 WNW 11 15 6 8 1018.1 - 0.0
04/09:30pm 17.5 17.0 14.9 85 1.5 WNW 11 13 6 7 1018.2 - 0.0
04/09:00pm 17.8 17.3 15.0 84 1.6 WNW 11 13 6 7 1018.2 1018.2 0.0
04/08:30pm 18.5 18.1 15.1 80 2.0 NW 11 11 6 6 1018.0 - 0.0
04/08:00pm 18.7 18.1 14.7 77 2.3 NW 11 13 6 7 1017.8 - 0.0
04/07:30pm 19.0 18.4 14.5 75 2.6 NW 11 11 6 6 1017.5 - 0.0
04/07:00pm 19.4 18.3 14.4 73 2.9 NW 13 15 7 8 1017.2 - 0.0
04/06:30pm 20.7 19.7 14.5 67 3.6 NW 13 15 7 8 1016.7 - 0.0
04/06:00pm 22.2 20.2 13.9 59 4.8 NW 17 20 9 11 1016.5 1016.5 0.0
04/05:30pm 24.1 21.9 12.1 47 6.8 NNW 15 19 8 10 1016.3 - 0.0
04/05:00pm 25.5 22.4 10.4 38 8.4 NW 17 24 9 13 1016.0 - 0.0
04/04:30pm 26.2 22.2 10.4 37 8.8 WNW 22 28 12 15 1015.8 - 0.0
04/04:00pm 26.1 21.1 8.0 31 9.7 NW 24 32 13 17 1015.9 - 0.0
04/03:30pm 26.7 22.3 11.6 39 8.6 NW 26 33 14 18 1015.8 - 0.0
04/03:00pm 26.6 21.6 11.0 37 8.8 NNW 28 35 15 19 1015.8 1015.8 0.0
04/02:30pm 26.9 22.6 12.2 40 8.5 NW 26 35 14 19 1015.9 - 0.0
04/02:00pm 27.1 23.0 11.3 37 9.0 NW 24 30 13 16 1016.2 - 0.0
04/01:30pm 27.2 23.6 11.9 38 8.8 NW 22 30 12 16 1016.5 - 0.0
04/01:00pm 27.0 23.8 13.0 42 8.2 NW 22 28 12 15 1016.7 - 0.0
04/12:30pm 26.8 23.8 12.5 41 8.3 NNW 20 30 11 16 1017.1 - 0.0
04/12:00pm 26.6 24.4 14.4 47 7.3 NNW 19 22 10 12 1017.3 1017.3 0.0
04/11:30am 26.9 24.8 13.7 44 7.8 NNW 17 22 9 12 1017.8 - 0.0
04/11:00am 25.6 23.1 12.4 43 7.6 N 17 26 9 14 1018.1 - 0.0
04/10:30am 25.6 24.1 13.0 45 7.3 NNW 13 20 7 11 1018.2 - 0.0
04/10:00am 24.6 23.3 13.6 50 6.4 NNW 13 17 7 9 1018.4 - 0.0
04/09:30am 23.7 23.7 17.2 67 4.0 NNE 13 17 7 9 1018.5 - 0.0
04/09:00am 23.5 23.0 14.9 58 5.1 N 11 15 6 8 1018.4 1018.4 0.0
04/08:30am 22.9 22.3 13.6 55 5.4 NW 9 11 5 6 1018.2 - 0.0
04/08:00am 21.4 22.3 15.1 67 3.7 WSW 4 9 2 5 1017.9 - 0.0
04/07:30am 19.6 22.1 17.3 86 1.4 CALM 0 2 0 1 1017.8 - 0.0
04/07:00am 16.1 16.2 15.4 96 0.4 ESE 9 9 5 5 1017.7 - 0.0
04/06:30am 14.5 14.5 14.1 97 0.2 SE 7 9 4 5 1017.5 - 0.0
04/06:00am 14.4 14.6 14.2 99 0.1 ESE 6 7 3 4 1017.2 1017.2 0.0
04/05:30am 14.4 15.7 14.0 97 0.2 CALM 0 0 0 0 1016.7 - 0.0
04/05:00am 14.3 15.4 13.4 94 0.5 CALM 0 0 0 0 1016.5 - 0.0
04/04:30am 14.5 15.6 13.4 93 0.6 CALM 0 0 0 0 1016.4 - 0.0
04/04:00am 14.6 15.6 13.3 92 0.7 CALM 0 0 0 0 1016.2 - 0.0
04/03:30am 15.5 15.8 14.6 94 0.5 WSW 6 7 3 4 1016.3 - 0.0
04/03:00am 16.0 16.5 15.1 94 0.5 WSW 6 6 3 3 1016.4 1016.4 0.0
04/02:30am 16.9 18.1 15.9 94 0.6 SW 4 7 2 4 1016.7 - 0.0
04/02:00am 16.8 16.9 15.6 93 0.7 SW 9 11 5 6 1016.9 - 0.0
04/01:30am 17.2 17.0 15.7 91 0.9 SW 11 11 6 6 1017.1 - 0.0
04/01:00am 16.9 16.1 15.2 90 1.0 SW 13 15 7 8 1017.2 - 0.0
04/12:30am 17.2 17.4 15.7 91 0.9 WSW 9 13 5 7 1017.6 - 0.0
04/12:00am 17.4 19.5 16.2 93 0.7 CALM 0 0 0 0 1017.9 1017.9 0.0
 
Date/Time
WST
Temp
°C
App
Temp
°C
Dew
Point
Rel
Hum
%
Delta-T
°C
Wind Press
QNH
hPa
Press
MSL
hPa
Rain
since 9 am
mm
Dir
 
Spd
km/h
Gust
km/h
Spd
kts
Gust
kts
03/11:30pm 17.8 20.0 16.5 92 0.8 CALM 0 0 0 0 1017.9 - 0.0
03/11:00pm 18.2 20.4 16.5 90 1.0 CALM 0 0 0 0 1017.8 - 0.0
03/10:30pm 17.9 19.6 15.3 85 1.5 CALM 0 0 0 0 1018.0 - 0.0
03/10:00pm 18.2 20.2 16.0 87 1.3 CALM 0 0 0 0 1018.1 - 0.0
03/09:30pm 19.0 20.4 16.5 85 1.5 WNW 4 6 2 3 1018.0 - 0.0
03/09:00pm 18.9 19.8 16.0 83 1.7 WNW 6 7 3 4 1018.1 1018.1 0.0
03/08:30pm 19.0 19.9 16.7 86 1.4 WNW 7 9 4 5 1018.0 - 0.0
03/08:00pm 19.4 20.2 16.4 83 1.8 WNW 7 9 4 5 1017.9 - 0.0
03/07:30pm 19.7 20.0 16.0 79 2.2 WNW 9 9 5 5 1017.6 - 0.0
03/07:00pm 20.0 19.7 15.4 75 2.7 WNW 11 13 6 7 1017.2 - 0.0
03/06:30pm 21.0 20.6 15.1 69 3.5 WNW 11 13 6 7 1016.9 - 0.0
03/06:00pm 22.2 20.6 13.9 59 4.8 NW 15 19 8 10 1016.6 1016.6 0.0
03/05:30pm 23.7 20.2 10.9 44 7.1 NNW 20 26 11 14 1016.4 - 0.0
03/05:00pm 24.5 20.6 12.0 45 7.1 NNW 24 30 13 16 1016.3 - 0.0
03/04:30pm 25.2 20.9 10.9 40 8.0 NNW 24 30 13 16 1016.3 - 0.0
03/04:00pm 26.1 21.8 8.0 31 9.7 N 20 26 11 14 1016.2 - 0.0
03/03:30pm 25.6 21.1 7.1 30 9.7 N 20 26 11 14 1016.1 - 0.0
03/03:00pm 26.2 22.0 8.1 31 9.7 N 20 30 11 16 1016.0 1016.0 0.0
03/02:30pm 27.0 22.2 5.7 25 11.0 N 20 28 11 15 1016.0 - 0.0
03/02:00pm 26.5 20.8 5.1 25 10.9 N 24 30 13 16 1016.0 - 0.0
03/01:30pm 27.7 21.8 3.8 21 12.0 N 24 30 13 16 1016.0 - 0.0
03/01:00pm 28.5 23.2 2.9 19 12.7 N 20 22 11 12 1016.0 - 0.0
03/12:30pm 28.4 22.6 0.0 16 13.4 N 20 24 11 13 1016.3 - 0.0
03/12:00pm 28.0 22.5 1.9 18 12.7 NNE 20 26 11 14 1016.6 1016.6 0.0
03/11:30am 27.5 21.8 3.0 20 12.1 NNE 22 26 12 14 1017.0 - 0.0
03/11:00am 27.0 21.3 2.7 21 11.9 NNE 22 28 12 15 1017.4 - 0.0
03/10:30am 28.2 22.2 -1.9 14 13.7 ENE 20 28 11 15 1017.6 - 0.0
03/10:00am 27.7 21.7 -1.4 15 13.3 E 20 32 11 17 1017.8 - 0.0
03/09:30am 26.5 20.0 -2.6 14 12.9 ESE 22 32 12 17 1017.9 - 0.0
03/09:00am 25.5 19.0 0.2 19 11.7 E 24 35 13 19 1017.9 1017.9 0.0
03/08:30am 24.6 21.8 8.5 36 8.6 SE 13 19 7 10 1017.9 - 0.0
03/08:00am 22.7 20.6 9.8 44 7.0 SSE 11 15 6 8 1018.0 - 0.0
03/07:30am 19.1 17.4 9.9 55 4.9 SSE 9 11 5 6 1017.9 - 0.0
03/07:00am 16.0 14.1 9.0 63 3.6 S 9 11 5 6 1017.6 - 0.0
03/06:30am 14.1 12.6 9.0 71 2.6 S 7 7 4 4 1017.3 - 0.0
03/06:00am 14.7 13.4 9.2 69 2.8 SSE 6 9 3 5 1016.9 1016.9 0.0
03/05:30am 14.7 12.8 9.2 69 2.8 S 9 9 5 5 1016.9 - 0.0
03/05:00am 15.1 13.3 9.5 69 2.9 S 9 11 5 6 1016.6 - 0.0
03/04:30am 15.3 13.5 9.5 68 3.0 SSE 9 9 5 5 1016.6 - 0.0
03/04:00am 15.4 14.0 9.6 68 3.0 SE 7 11 4 6 1016.5 - 0.0
03/03:30am 15.8 14.4 9.6 66 3.2 SE 7 11 4 6 1016.5 - 0.0
03/03:00am 15.9 14.1 9.5 66 3.3 SE 9 13 5 7 1016.7 1016.7 0.0
03/02:30am 15.9 13.3 9.5 66 3.3 SSE 13 15 7 8 1016.9 - 0.0
03/02:00am 15.7 13.5 9.5 66 3.2 S 11 13 6 7 1016.8 - 0.0
03/01:30am 16.8 14.7 9.9 64 3.6 S 11 13 6 7 1016.6 - 0.0
03/01:00am 17.0 15.0 10.2 64 3.6 S 11 15 6 8 1016.8 - 0.0
03/12:30am 17.0 15.0 10.2 64 3.6 SSW 11 13 6 7 1017.0 - 0.0
03/12:00am 17.3 15.0 10.5 64 3.6 SSW 13 15 7 8 1017.2 1017.2 0.0
 
Date/Time
WST
Temp
°C
App
Temp
°C
Dew
Point
Rel
Hum
%
Delta-T
°C
Wind Press
QNH
hPa
Press
MSL
hPa
Rain
since 9 am
mm
Dir
 
Spd
km/h
Gust
km/h
Spd
kts
Gust
kts
02/11:30pm 17.4 16.1 11.3 67 3.3 SSW 9 13 5 7 1017.2 - 0.0
02/11:00pm 17.7 16.6 12.1 69 3.1 SSW 9 11 5 6 1017.2 - 0.0
02/10:30pm 17.9 16.5 12.1 69 3.2 SSW 11 11 6 6 1017.3 - 0.0
02/10:00pm 18.4 17.5 12.5 68 3.3 S 9 11 5 6 1017.4 - 0.0
02/09:30pm 18.4 17.9 12.7 69 3.2 S 7 9 4 5 1017.4 - 0.0
02/09:00pm 19.2 18.9 13.4 69 3.3 S 7 11 4 6 1017.3 1017.3 0.0
02/08:30pm 19.0 18.1 13.7 71 3.0 SW 11 13 6 7 1017.3 - 0.0
02/08:00pm 19.8 19.5 13.3 66 3.7 W 7 9 4 5 1016.8 - 0.0
02/07:30pm 19.7 19.1 13.4 67 3.6 W 9 9 5 5 1016.4 - 0.0
02/07:00pm 20.5 20.5 14.3 67 3.6 NW 7 9 4 5 1015.7 - 0.0
02/06:30pm 20.8 20.3 13.7 64 4.1 NNW 9 11 5 6 1015.4 - 0.0
02/06:00pm 22.7 21.1 12.9 54 5.6 N 13 15 7 8 1015.2 1015.2 0.0
02/05:30pm 24.1 20.8 11.0 43 7.3 N 19 22 10 12 1015.0 - 0.0
02/05:00pm 24.6 20.5 10.1 40 8.0 N 22 26 12 14 1014.9 - 0.0
02/04:30pm 25.3 21.2 10.1 38 8.4 N 22 30 12 16 1014.8 - 0.0
02/04:00pm 25.5 20.6 8.4 33 9.2 N 24 32 13 17 1014.8 - 0.0
02/03:30pm 26.7 22.0 7.8 30 10.1 N 22 28 12 15 1014.8 - 0.0
02/03:00pm 27.6 23.2 7.4 28 10.8 N 20 28 11 15 1014.8 1014.8 0.0
02/02:30pm 27.7 22.6 7.8 28 10.7 N 24 32 13 17 1014.9 - 0.0
02/02:00pm 26.7 22.2 10.2 35 9.2 N 24 32 13 17 1015.1 - 0.0
02/01:30pm 29.2 21.6 0.6 15 13.7 NNE 30 37 16 20 1015.3 - 0.0
02/01:00pm 29.3 22.8 0.5 15 13.8 NNE 24 30 13 16 1015.6 - 0.0
02/12:30pm 29.3 23.0 -1.3 13 14.2 ENE 22 37 12 20 1015.9 - 0.0
02/12:00pm 29.7 22.5 -2.2 12 14.6 E 26 37 14 20 1016.4 1016.4 0.0
02/11:30am 28.4 21.5 -2.3 13 13.9 E 24 33 13 18 1016.8 - 0.0
02/11:00am 27.5 19.4 -2.9 13 13.5 E 30 41 16 22 1017.1 - 0.0
02/10:30am 27.0 19.4 -2.3 14 13.1 ESE 28 41 15 22 1017.2 - 0.0
02/10:00am 25.8 18.1 -3.0 15 12.6 ESE 28 39 15 21 1017.6 - 0.0
02/09:30am 25.3 17.5 -3.4 15 12.4 E 28 39 15 21 1017.6 - 0.0
02/09:00am 24.9 16.4 -3.0 15 12.1 E 32 41 17 22 1017.6 1017.6 0.0
02/08:30am 23.9 15.5 -2.7 17 11.5 ESE 32 43 17 23 1017.3 - 0.0
02/08:23am 23.6 15.9 -2.9 17 11.4 ESE 28 39 15 21 1017.2 - 0.0
02/08:00am 21.3 17.0 1.1 26 9.2 SE 13 17 7 9 1017.1 - 0.0
02/07:30am 17.9 15.0 4.4 41 6.4 SSE 9 15 5 8 1016.8 - 0.0
02/07:00am 15.5 12.5 4.3 47 5.2 SE 9 13 5 7 1016.5 - 0.0
02/06:30am 14.3 10.7 5.1 54 4.3 S 13 15 7 8 1015.9 - 0.0
02/06:00am 14.6 11.2 6.0 56 4.1 S 13 19 7 10 1015.3 1015.3 0.0
02/05:30am 15.2 12.3 8.2 63 3.5 S 13 15 7 8 1014.9 - 0.0
02/05:00am 13.9 12.3 11.5 85 1.3 SW 11 13 6 7 1014.6 - 0.0
02/04:30am 14.5 13.1 12.3 87 1.2 SW 11 13 6 7 1014.5 - 0.0
02/04:00am 14.9 13.5 13.3 90 0.9 SW 13 13 7 7 1014.4 - 0.0
02/03:30am 14.9 14.0 13.6 92 0.7 SW 11 15 6 8 1014.5 - 0.0
02/03:00am 15.0 14.5 13.8 92 0.7 WSW 9 13 5 7 1014.6 1014.6 0.0
02/02:30am 16.2 15.2 14.6 90 0.9 SW 13 13 7 7 1014.7 - 0.0
02/02:00am 16.4 17.5 14.5 88 1.1 SSW 2 9 1 5 1014.8 - 0.0
02/01:30am 17.8 18.2 15.4 86 1.4 S 7 9 4 5 1015.1 - 0.0
02/01:00am 18.2 18.6 15.3 83 1.7 S 7 9 4 5 1015.3 - 0.0
02/12:30am 18.7 18.8 15.6 82 1.8 SSW 9 11 5 6 1015.4 - 0.0
02/12:00am 18.2 18.6 15.3 83 1.7 NW 7 11 4 6 1015.4 1015.4 0.0
 
Date/Time
WST
Temp
°C
App
Temp
°C
Dew
Point
Rel
Hum
%
Delta-T
°C
Wind Press
QNH
hPa
Press
MSL
hPa
Rain
since 9 am
mm
Dir
 
Spd
km/h
Gust
km/h
Spd
kts
Gust
kts
01/11:30pm 18.2 19.3 15.5 84 1.6 NNW 4 6 2 3 1015.6 - 0.0
01/11:00pm 19.2 20.4 15.8 81 2.0 NNW 4 7 2 4 1015.6 - 0.0
01/10:30pm 19.3 18.4 15.8 80 2.1 W 15 17 8 9 1015.3 - 0.0

Other Formats:

Comma delimited format used in spreadsheet applications
http://www.bom.gov.au/fwo/IDW60801/IDW60801.94312.axf

JavaScript Object Notation format (JSON) in row-major order
http://www.bom.gov.au/fwo/IDW60801/IDW60801.94312.json